Portada
METAR-TAF:

METAR-TAF

Aeroports :

Bagdad, Iraq

latitud: 33-15-45N, longitud: 44-14-04E, altitud: 35 m

Observació

L'informe es va fer fa 36 minuts, a les 08:00 UTC
Vent 14 kt del Sud-Oest
Temperatura 15°C
Humitat 59%
Pressió 1008 hPa
Visibilitat 10 km o més
Núvols disperses a una alçada de 3000 ft

METAR: ORBI 180800Z 23014KT 9999 SCT030 15/07 Q1008 NOSIG

Hora: 11:36 (08:36 UTC)

Pronòstic

L'informe es va fer fa 4 hores i 36 minuts, a les 04:00 UTC
Pronòstic vàlid del 18 a les 06 UTC al 19 a les 06 UTC
Vent 10 kt del Oest
Visibilitat: 8000 m
Núvols disperses a una alçada de 3000 ft
Cel ennuvolat a una alçada de 6000 ft
Temporalment
l' 18 a les 15 UTC al 18 a les 24 UTC
pluja

TAF: ORBI 180400Z 1806/1906 27010KT 8000 SCT030 BKN060 TEMPO 1815/1824 RA

Observacions i pronòstics meteorològics de més de 4000 aeroports (METAR i TAF).

Les estacions disponibles són els punts grocs i vermells al mapa.

Posi el ratolí al punt desitjat per veure el nom de l'estació.

Feu clic per veure les observacions i els pronòstics meteorològics.

Per canviar el mapa: feu clic els botons verds amb una creu de color negre per apropar; al botó verd amb un guió per allunyar la imatge; o en les fletxes verdes per a mapes adjacents.


METAR-TAF: